sensor_id;sensor_type;location;lat;lon;timestamp;P1;durP1;ratioP1;P2;durP2;ratioP2
55493;SDS011;41355;50.390;19.096;2022-09-06T00:01:42;4.85;;;1.48;;
55493;SDS011;41355;50.390;19.096;2022-09-06T00:04:08;4.00;;;1.35;;
55493;SDS011;41355;50.390;19.096;2022-09-06T00:06:34;3.35;;;1.35;;
55493;SDS011;41355;50.390;19.096;2022-09-06T00:09:01;7.88;;;1.48;;
55493;SDS011;41355;50.390;19.096;2022-09-06T00:11:27;5.68;;;1.27;;
55493;SDS011;41355;50.390;19.096;2022-09-06T00:13:53;4.78;;;1.45;;
55493;SDS011;41355;50.390;19.096;2022-09-06T00:16:20;5.97;;;1.42;;
55493;SDS011;41355;50.390;19.096;2022-09-06T00:18:47;7.80;;;1.40;;
55493;SDS011;41355;50.390;19.096;2022-09-06T00:21:23;3.97;;;1.65;;
55493;SDS011;41355;50.390;19.096;2022-09-06T00:23:50;6.18;;;1.35;;
55493;SDS011;41355;50.390;19.096;2022-09-06T00:26:16;4.93;;;1.30;;
55493;SDS011;41355;50.390;19.096;2022-09-06T00:28:42;3.20;;;1.30;;
55493;SDS011;41355;50.390;19.096;2022-09-06T00:31:09;7.07;;;1.30;;
55493;SDS011;41355;50.390;19.096;2022-09-06T00:33:35;4.45;;;1.45;;
55493;SDS011;41355;50.390;19.096;2022-09-06T00:36:02;3.22;;;1.20;;
55493;SDS011;41355;50.390;19.096;2022-09-06T00:38:28;2.92;;;1.10;;
55493;SDS011;41355;50.390;19.096;2022-09-06T00:40:54;3.97;;;1.30;;
55493;SDS011;41355;50.390;19.096;2022-09-06T00:43:20;4.00;;;1.30;;
55493;SDS011;41355;50.390;19.096;2022-09-06T00:45:46;3.05;;;1.33;;
55493;SDS011;41355;50.390;19.096;2022-09-06T00:48:12;3.60;;;1.17;;
55493;SDS011;41355;50.390;19.096;2022-09-06T00:50:38;3.10;;;1.10;;
55493;SDS011;41355;50.390;19.096;2022-09-06T00:53:04;2.88;;;1.05;;
55493;SDS011;41355;50.390;19.096;2022-09-06T00:55:30;3.25;;;1.13;;
55493;SDS011;41355;50.390;19.096;2022-09-06T00:57:57;3.88;;;1.10;;
55493;SDS011;41355;50.390;19.096;2022-09-06T01:00:23;4.32;;;1.10;;
55493;SDS011;41355;50.390;19.096;2022-09-06T01:02:49;3.08;;;1.20;;
55493;SDS011;41355;50.390;19.096;2022-09-06T01:05:16;4.47;;;1.40;;
55493;SDS011;41355;50.390;19.096;2022-09-06T01:16:20;3.75;;;1.02;;
55493;SDS011;41355;50.390;19.096;2022-09-06T01:23:52;2.90;;;1.10;;
55493;SDS011;41355;50.390;19.096;2022-09-06T01:29:06;4.20;;;1.38;;
55493;SDS011;41355;50.390;19.096;2022-09-06T01:31:39;8.23;;;1.40;;
55493;SDS011;41355;50.390;19.096;2022-09-06T01:36:39;3.38;;;1.13;;
55493;SDS011;41355;50.390;19.096;2022-09-06T01:39:09;3.60;;;1.17;;
55493;SDS011;41355;50.390;19.096;2022-09-06T01:41:39;2.72;;;1.10;;
55493;SDS011;41355;50.390;19.096;2022-09-06T01:44:05;7.25;;;1.33;;
55493;SDS011;41355;50.390;19.096;2022-09-06T01:46:43;4.05;;;1.00;;
55493;SDS011;41355;50.390;19.096;2022-09-06T01:49:17;2.40;;;1.00;;
55493;SDS011;41355;50.390;19.096;2022-09-06T01:51:53;3.65;;;1.17;;
55493;SDS011;41355;50.390;19.096;2022-09-06T01:54:27;3.78;;;1.35;;
55493;SDS011;41355;50.390;19.096;2022-09-06T02:04:24;4.05;;;1.23;;
55493;SDS011;41355;50.390;19.096;2022-09-06T02:06:53;2.85;;;1.20;;
55493;SDS011;41355;50.390;19.096;2022-09-06T02:09:22;2.85;;;1.05;;
55493;SDS011;41355;50.390;19.096;2022-09-06T02:11:50;4.13;;;1.30;;
55493;SDS011;41355;50.390;19.096;2022-09-06T02:14:19;5.03;;;1.20;;
55493;SDS011;41355;50.390;19.096;2022-09-06T02:16:46;4.28;;;1.50;;
55493;SDS011;41355;50.390;19.096;2022-09-06T02:19:16;3.30;;;1.35;;
55493;SDS011;41355;50.390;19.096;2022-09-06T02:21:43;3.40;;;1.15;;
55493;SDS011;41355;50.390;19.096;2022-09-06T02:24:13;6.72;;;1.30;;
55493;SDS011;41355;50.390;19.096;2022-09-06T02:26:41;6.32;;;1.42;;
55493;SDS011;41355;50.390;19.096;2022-09-06T02:29:08;3.35;;;1.05;;
55493;SDS011;41355;50.390;19.096;2022-09-06T02:31:36;3.15;;;1.23;;
55493;SDS011;41355;50.390;19.096;2022-09-06T02:34:03;3.47;;;1.13;;
55493;SDS011;41355;50.390;19.096;2022-09-06T02:36:30;3.13;;;1.10;;
55493;SDS011;41355;50.390;19.096;2022-09-06T02:39:00;4.45;;;1.13;;
55493;SDS011;41355;50.390;19.096;2022-09-06T02:41:26;2.90;;;1.23;;
55493;SDS011;41355;50.390;19.096;2022-09-06T02:43:52;4.13;;;1.33;;
55493;SDS011;41355;50.390;19.096;2022-09-06T02:46:18;4.75;;;1.10;;
55493;SDS011;41355;50.390;19.096;2022-09-06T02:48:44;3.28;;;1.55;;
55493;SDS011;41355;50.390;19.096;2022-09-06T02:51:10;3.25;;;1.25;;
55493;SDS011;41355;50.390;19.096;2022-09-06T02:53:36;3.75;;;1.42;;
55493;SDS011;41355;50.390;19.096;2022-09-06T02:56:03;4.55;;;1.30;;
55493;SDS011;41355;50.390;19.096;2022-09-06T02:58:29;4.05;;;1.40;;
55493;SDS011;41355;50.390;19.096;2022-09-06T03:00:55;9.98;;;1.40;;
55493;SDS011;41355;50.390;19.096;2022-09-06T03:03:22;3.75;;;1.20;;
55493;SDS011;41355;50.390;19.096;2022-09-06T03:05:49;2.88;;;1.10;;
55493;SDS011;41355;50.390;19.096;2022-09-06T03:08:16;4.32;;;1.23;;
55493;SDS011;41355;50.390;19.096;2022-09-06T03:10:49;4.80;;;1.30;;
55493;SDS011;41355;50.390;19.096;2022-09-06T03:13:15;4.07;;;1.20;;
55493;SDS011;41355;50.390;19.096;2022-09-06T03:15:41;3.92;;;1.52;;
55493;SDS011;41355;50.390;19.096;2022-09-06T03:18:08;3.70;;;1.20;;
55493;SDS011;41355;50.390;19.096;2022-09-06T03:20:34;4.13;;;1.42;;
55493;SDS011;41355;50.390;19.096;2022-09-06T03:23:00;3.50;;;1.20;;
55493;SDS011;41355;50.390;19.096;2022-09-06T03:25:26;3.78;;;1.40;;
55493;SDS011;41355;50.390;19.096;2022-09-06T03:27:52;2.85;;;1.42;;
55493;SDS011;41355;50.390;19.096;2022-09-06T03:30:18;3.53;;;1.27;;
55493;SDS011;41355;50.390;19.096;2022-09-06T03:32:44;3.53;;;1.20;;
55493;SDS011;41355;50.390;19.096;2022-09-06T03:35:10;4.03;;;1.20;;
55493;SDS011;41355;50.390;19.096;2022-09-06T03:37:36;3.92;;;1.08;;
55493;SDS011;41355;50.390;19.096;2022-09-06T03:40:02;3.25;;;1.02;;
55493;SDS011;41355;50.390;19.096;2022-09-06T03:42:29;4.00;;;1.67;;
55493;SDS011;41355;50.390;19.096;2022-09-06T03:44:55;3.80;;;1.30;;
55493;SDS011;41355;50.390;19.096;2022-09-06T03:47:21;2.95;;;1.13;;
55493;SDS011;41355;50.390;19.096;2022-09-06T03:49:47;3.63;;;1.25;;
55493;SDS011;41355;50.390;19.096;2022-09-06T03:52:13;4.18;;;1.25;;
55493;SDS011;41355;50.390;19.096;2022-09-06T03:54:39;3.65;;;1.23;;
55493;SDS011;41355;50.390;19.096;2022-09-06T03:57:05;4.10;;;1.35;;
55493;SDS011;41355;50.390;19.096;2022-09-06T03:59:31;7.15;;;1.40;;
55493;SDS011;41355;50.390;19.096;2022-09-06T04:01:57;2.90;;;1.10;;
55493;SDS011;41355;50.390;19.096;2022-09-06T04:04:23;4.32;;;1.42;;
55493;SDS011;41355;50.390;19.096;2022-09-06T04:06:49;5.10;;;1.40;;
55493;SDS011;41355;50.390;19.096;2022-09-06T04:09:15;5.75;;;1.30;;
55493;SDS011;41355;50.390;19.096;2022-09-06T04:11:41;4.35;;;1.15;;
55493;SDS011;41355;50.390;19.096;2022-09-06T04:14:07;4.25;;;1.25;;
55493;SDS011;41355;50.390;19.096;2022-09-06T04:16:33;4.10;;;1.40;;
55493;SDS011;41355;50.390;19.096;2022-09-06T04:18:59;2.80;;;1.10;;
55493;SDS011;41355;50.390;19.096;2022-09-06T04:21:26;3.45;;;1.35;;
55493;SDS011;41355;50.390;19.096;2022-09-06T04:23:52;5.90;;;1.33;;
55493;SDS011;41355;50.390;19.096;2022-09-06T04:26:18;3.30;;;1.25;;
55493;SDS011;41355;50.390;19.096;2022-09-06T04:28:44;3.58;;;1.38;;
55493;SDS011;41355;50.390;19.096;2022-09-06T04:31:10;3.95;;;1.30;;
55493;SDS011;41355;50.390;19.096;2022-09-06T04:33:37;6.13;;;1.60;;
55493;SDS011;41355;50.390;19.096;2022-09-06T04:36:04;3.40;;;1.30;;
55493;SDS011;41355;50.390;19.096;2022-09-06T04:38:33;5.28;;;1.55;;
55493;SDS011;41355;50.390;19.096;2022-09-06T04:41:00;4.68;;;1.45;;
55493;SDS011;41355;50.390;19.096;2022-09-06T04:43:26;5.20;;;1.67;;
55493;SDS011;41355;50.390;19.096;2022-09-06T04:45:52;4.63;;;1.55;;
55493;SDS011;41355;50.390;19.096;2022-09-06T04:48:18;4.18;;;1.40;;
55493;SDS011;41355;50.390;19.096;2022-09-06T04:50:44;7.53;;;1.80;;
55493;SDS011;41355;50.390;19.096;2022-09-06T04:53:10;3.67;;;1.40;;
55493;SDS011;41355;50.390;19.096;2022-09-06T04:55:36;4.57;;;1.40;;
55493;SDS011;41355;50.390;19.096;2022-09-06T04:58:03;4.97;;;1.25;;
55493;SDS011;41355;50.390;19.096;2022-09-06T05:00:30;4.75;;;1.40;;
55493;SDS011;41355;50.390;19.096;2022-09-06T05:02:56;4.53;;;1.50;;
55493;SDS011;41355;50.390;19.096;2022-09-06T05:05:23;4.57;;;1.42;;
55493;SDS011;41355;50.390;19.096;2022-09-06T05:07:52;8.07;;;1.80;;
55493;SDS011;41355;50.390;19.096;2022-09-06T05:10:19;5.47;;;1.65;;
55493;SDS011;41355;50.390;19.096;2022-09-06T05:12:47;6.28;;;1.70;;
55493;SDS011;41355;50.390;19.096;2022-09-06T05:15:13;6.13;;;1.70;;
55493;SDS011;41355;50.390;19.096;2022-09-06T05:17:40;5.93;;;1.65;;
55493;SDS011;41355;50.390;19.096;2022-09-06T05:20:06;6.75;;;1.70;;
55493;SDS011;41355;50.390;19.096;2022-09-06T05:22:32;5.10;;;1.67;;
55493;SDS011;41355;50.390;19.096;2022-09-06T05:24:58;4.35;;;1.40;;
55493;SDS011;41355;50.390;19.096;2022-09-06T05:27:24;3.85;;;1.40;;
55493;SDS011;41355;50.390;19.096;2022-09-06T05:29:50;4.13;;;1.40;;
55493;SDS011;41355;50.390;19.096;2022-09-06T05:32:16;6.05;;;1.52;;
55493;SDS011;41355;50.390;19.096;2022-09-06T05:34:42;3.95;;;1.48;;
55493;SDS011;41355;50.390;19.096;2022-09-06T05:37:08;5.35;;;1.80;;
55493;SDS011;41355;50.390;19.096;2022-09-06T05:39:34;4.13;;;1.52;;
55493;SDS011;41355;50.390;19.096;2022-09-06T05:42:00;6.63;;;1.67;;
55493;SDS011;41355;50.390;19.096;2022-09-06T05:44:31;5.50;;;1.80;;
55493;SDS011;41355;50.390;19.096;2022-09-06T05:46:57;4.55;;;1.73;;
55493;SDS011;41355;50.390;19.096;2022-09-06T05:49:23;5.40;;;1.45;;
55493;SDS011;41355;50.390;19.096;2022-09-06T05:51:49;6.25;;;1.60;;
55493;SDS011;41355;50.390;19.096;2022-09-06T05:54:16;4.93;;;1.40;;
55493;SDS011;41355;50.390;19.096;2022-09-06T05:56:42;4.15;;;1.63;;
55493;SDS011;41355;50.390;19.096;2022-09-06T05:59:08;4.30;;;1.65;;
55493;SDS011;41355;50.390;19.096;2022-09-06T06:01:34;4.13;;;1.50;;
55493;SDS011;41355;50.390;19.096;2022-09-06T06:04:01;6.38;;;1.70;;
55493;SDS011;41355;50.390;19.096;2022-09-06T06:06:28;5.05;;;1.80;;
55493;SDS011;41355;50.390;19.096;2022-09-06T06:08:55;5.70;;;1.98;;
55493;SDS011;41355;50.390;19.096;2022-09-06T06:11:21;5.55;;;1.75;;
55493;SDS011;41355;50.390;19.096;2022-09-06T06:13:48;4.88;;;1.60;;
55493;SDS011;41355;50.390;19.096;2022-09-06T06:16:15;8.07;;;1.98;;
55493;SDS011;41355;50.390;19.096;2022-09-06T06:18:41;5.88;;;2.05;;
55493;SDS011;41355;50.390;19.096;2022-09-06T06:21:12;6.35;;;1.80;;
55493;SDS011;41355;50.390;19.096;2022-09-06T06:23:39;4.97;;;1.65;;
55493;SDS011;41355;50.390;19.096;2022-09-06T06:26:05;5.13;;;1.63;;
55493;SDS011;41355;50.390;19.096;2022-09-06T06:28:32;4.85;;;1.65;;
55493;SDS011;41355;50.390;19.096;2022-09-06T06:30:59;7.88;;;1.77;;
55493;SDS011;41355;50.390;19.096;2022-09-06T06:33:25;7.60;;;1.90;;
55493;SDS011;41355;50.390;19.096;2022-09-06T06:35:55;6.40;;;2.30;;
55493;SDS011;41355;50.390;19.096;2022-09-06T06:38:21;5.00;;;2.00;;
55493;SDS011;41355;50.390;19.096;2022-09-06T06:40:47;6.03;;;1.92;;
55493;SDS011;41355;50.390;19.096;2022-09-06T06:43:13;5.50;;;1.95;;
55493;SDS011;41355;50.390;19.096;2022-09-06T06:45:39;6.55;;;1.92;;
55493;SDS011;41355;50.390;19.096;2022-09-06T06:48:05;4.93;;;1.80;;
55493;SDS011;41355;50.390;19.096;2022-09-06T06:50:31;4.50;;;2.00;;
55493;SDS011;41355;50.390;19.096;2022-09-06T06:52:58;4.43;;;1.85;;
55493;SDS011;41355;50.390;19.096;2022-09-06T06:55:24;9.25;;;2.03;;
55493;SDS011;41355;50.390;19.096;2022-09-06T06:57:50;6.13;;;1.95;;
55493;SDS011;41355;50.390;19.096;2022-09-06T07:00:16;5.32;;;1.77;;
55493;SDS011;41355;50.390;19.096;2022-09-06T07:02:42;6.28;;;1.60;;
55493;SDS011;41355;50.390;19.096;2022-09-06T07:05:08;4.38;;;1.70;;
55493;SDS011;41355;50.390;19.096;2022-09-06T07:07:34;6.82;;;2.00;;
55493;SDS011;41355;50.390;19.096;2022-09-06T07:10:00;6.22;;;1.98;;
55493;SDS011;41355;50.390;19.096;2022-09-06T07:12:26;5.30;;;1.75;;
55493;SDS011;41355;50.390;19.096;2022-09-06T07:14:52;7.43;;;1.80;;
55493;SDS011;41355;50.390;19.096;2022-09-06T07:17:18;3.83;;;1.50;;
55493;SDS011;41355;50.390;19.096;2022-09-06T07:19:44;5.32;;;1.80;;
55493;SDS011;41355;50.390;19.096;2022-09-06T07:22:10;5.57;;;1.92;;
55493;SDS011;41355;50.390;19.096;2022-09-06T07:24:36;4.30;;;1.25;;
55493;SDS011;41355;50.390;19.096;2022-09-06T07:27:03;3.50;;;1.40;;
55493;SDS011;41355;50.390;19.096;2022-09-06T07:29:29;6.57;;;1.70;;
55493;SDS011;41355;50.390;19.096;2022-09-06T07:31:55;6.63;;;1.70;;
55493;SDS011;41355;50.390;19.096;2022-09-06T07:34:21;5.20;;;1.55;;
55493;SDS011;41355;50.390;19.096;2022-09-06T07:36:53;8.48;;;1.73;;
55493;SDS011;41355;50.390;19.096;2022-09-06T07:39:19;4.38;;;1.58;;
55493;SDS011;41355;50.390;19.096;2022-09-06T07:41:45;5.63;;;1.45;;
55493;SDS011;41355;50.390;19.096;2022-09-06T07:44:11;5.18;;;1.67;;
55493;SDS011;41355;50.390;19.096;2022-09-06T07:46:37;4.50;;;1.63;;
55493;SDS011;41355;50.390;19.096;2022-09-06T07:49:04;4.75;;;1.80;;
55493;SDS011;41355;50.390;19.096;2022-09-06T07:51:30;5.78;;;1.65;;
55493;SDS011;41355;50.390;19.096;2022-09-06T07:53:56;4.75;;;1.33;;
55493;SDS011;41355;50.390;19.096;2022-09-06T07:56:22;3.90;;;1.42;;
55493;SDS011;41355;50.390;19.096;2022-09-06T07:58:49;5.30;;;1.73;;
55493;SDS011;41355;50.390;19.096;2022-09-06T08:03:41;4.57;;;1.58;;
55493;SDS011;41355;50.390;19.096;2022-09-06T08:06:08;5.25;;;1.73;;
55493;SDS011;41355;50.390;19.096;2022-09-06T08:08:34;5.90;;;1.55;;
55493;SDS011;41355;50.390;19.096;2022-09-06T08:11:00;7.60;;;1.80;;
55493;SDS011;41355;50.390;19.096;2022-09-06T08:13:26;7.63;;;1.90;;
55493;SDS011;41355;50.390;19.096;2022-09-06T08:15:58;3.58;;;1.30;;
55493;SDS011;41355;50.390;19.096;2022-09-06T08:18:25;3.63;;;1.33;;
55493;SDS011;41355;50.390;19.096;2022-09-06T08:20:51;5.18;;;1.65;;
55493;SDS011;41355;50.390;19.096;2022-09-06T08:23:17;4.55;;;1.50;;
55493;SDS011;41355;50.390;19.096;2022-09-06T08:25:43;4.63;;;1.65;;
55493;SDS011;41355;50.390;19.096;2022-09-06T08:28:09;5.43;;;1.65;;
55493;SDS011;41355;50.390;19.096;2022-09-06T08:30:35;4.85;;;1.52;;
55493;SDS011;41355;50.390;19.096;2022-09-06T08:33:01;3.90;;;1.60;;
55493;SDS011;41355;50.390;19.096;2022-09-06T08:35:27;8.02;;;1.60;;
55493;SDS011;41355;50.390;19.096;2022-09-06T08:37:56;4.97;;;1.50;;
55493;SDS011;41355;50.390;19.096;2022-09-06T08:40:22;7.35;;;1.52;;
55493;SDS011;41355;50.390;19.096;2022-09-06T08:42:49;3.90;;;1.30;;
55493;SDS011;41355;50.390;19.096;2022-09-06T08:45:16;5.18;;;1.60;;
55493;SDS011;41355;50.390;19.096;2022-09-06T08:47:47;7.07;;;1.75;;
55493;SDS011;41355;50.390;19.096;2022-09-06T08:50:14;4.57;;;1.38;;
55493;SDS011;41355;50.390;19.096;2022-09-06T08:53:01;4.93;;;1.60;;
55493;SDS011;41355;50.390;19.096;2022-09-06T09:00:49;4.30;;;1.35;;
55493;SDS011;41355;50.390;19.096;2022-09-06T09:03:18;3.20;;;1.30;;
55493;SDS011;41355;50.390;19.096;2022-09-06T09:05:49;3.30;;;1.33;;
55493;SDS011;41355;50.390;19.096;2022-09-06T09:11:02;5.13;;;1.40;;
55493;SDS011;41355;50.390;19.096;2022-09-06T09:16:05;3.40;;;1.30;;
55493;SDS011;41355;50.390;19.096;2022-09-06T09:18:32;3.97;;;1.35;;
55493;SDS011;41355;50.390;19.096;2022-09-06T09:20:59;3.85;;;1.33;;
55493;SDS011;41355;50.390;19.096;2022-09-06T09:23:26;3.80;;;1.40;;
55493;SDS011;41355;50.390;19.096;2022-09-06T09:25:54;3.78;;;1.30;;
55493;SDS011;41355;50.390;19.096;2022-09-06T09:28:22;4.40;;;1.30;;
55493;SDS011;41355;50.390;19.096;2022-09-06T09:30:49;6.82;;;1.45;;
55493;SDS011;41355;50.390;19.096;2022-09-06T09:35:51;3.70;;;1.30;;
55493;SDS011;41355;50.390;19.096;2022-09-06T09:38:31;5.07;;;1.27;;
55493;SDS011;41355;50.390;19.096;2022-09-06T09:41:00;7.07;;;1.35;;
55493;SDS011;41355;50.390;19.096;2022-09-06T09:43:34;11.45;;;1.40;;
55493;SDS011;41355;50.390;19.096;2022-09-06T09:48:33;5.68;;;1.20;;
55493;SDS011;41355;50.390;19.096;2022-09-06T09:51:20;5.05;;;1.50;;
55493;SDS011;41355;50.390;19.096;2022-09-06T09:53:53;4.72;;;1.40;;
55493;SDS011;41355;50.390;19.096;2022-09-06T10:01:54;3.83;;;1.20;;
55493;SDS011;41355;50.390;19.096;2022-09-06T10:04:28;6.80;;;1.23;;
55493;SDS011;41355;50.390;19.096;2022-09-06T10:07:16;4.63;;;1.23;;
55493;SDS011;41355;50.390;19.096;2022-09-06T10:09:42;4.95;;;1.20;;
55493;SDS011;41355;50.390;19.096;2022-09-06T10:14:55;7.05;;;1.30;;
55493;SDS011;41355;50.390;19.096;2022-09-06T10:17:31;3.95;;;1.50;;
55493;SDS011;41355;50.390;19.096;2022-09-06T10:20:02;5.00;;;1.52;;
55493;SDS011;41355;50.390;19.096;2022-09-06T10:27:30;6.47;;;1.65;;
55493;SDS011;41355;50.390;19.096;2022-09-06T10:35:08;5.20;;;1.40;;
55493;SDS011;41355;50.390;19.096;2022-09-06T10:40:09;4.28;;;1.45;;
55493;SDS011;41355;50.390;19.096;2022-09-06T10:42:45;4.53;;;1.52;;
55493;SDS011;41355;50.390;19.096;2022-09-06T10:47:49;6.95;;;1.50;;
55493;SDS011;41355;50.390;19.096;2022-09-06T10:50:18;4.32;;;1.30;;
55493;SDS011;41355;50.390;19.096;2022-09-06T10:52:45;3.00;;;1.20;;
55493;SDS011;41355;50.390;19.096;2022-09-06T10:55:16;3.53;;;1.40;;
55493;SDS011;41355;50.390;19.096;2022-09-06T10:57:47;4.57;;;1.40;;
55493;SDS011;41355;50.390;19.096;2022-09-06T11:00:16;4.15;;;1.40;;
55493;SDS011;41355;50.390;19.096;2022-09-06T11:02:53;5.03;;;1.30;;
55493;SDS011;41355;50.390;19.096;2022-09-06T11:05:21;3.22;;;1.15;;
55493;SDS011;41355;50.390;19.096;2022-09-06T11:07:51;3.67;;;1.48;;
55493;SDS011;41355;50.390;19.096;2022-09-06T11:10:29;7.90;;;2.40;;
55493;SDS011;41355;50.390;19.096;2022-09-06T11:12:57;9.25;;;2.00;;
55493;SDS011;41355;50.390;19.096;2022-09-06T11:15:25;6.85;;;1.50;;
55493;SDS011;41355;50.390;19.096;2022-09-06T11:17:55;8.15;;;2.13;;
55493;SDS011;41355;50.390;19.096;2022-09-06T11:20:28;13.90;;;2.30;;
55493;SDS011;41355;50.390;19.096;2022-09-06T11:28:27;5.65;;;1.58;;
55493;SDS011;41355;50.390;19.096;2022-09-06T11:30:55;4.20;;;1.63;;
55493;SDS011;41355;50.390;19.096;2022-09-06T11:33:25;4.20;;;1.50;;
55493;SDS011;41355;50.390;19.096;2022-09-06T11:35:53;4.50;;;1.60;;
55493;SDS011;41355;50.390;19.096;2022-09-06T11:38:21;6.15;;;1.55;;
55493;SDS011;41355;50.390;19.096;2022-09-06T11:40:50;5.95;;;2.25;;
55493;SDS011;41355;50.390;19.096;2022-09-06T11:43:17;5.47;;;1.92;;
55493;SDS011;41355;50.390;19.096;2022-09-06T11:46:02;7.57;;;1.70;;
55493;SDS011;41355;50.390;19.096;2022-09-06T11:48:29;8.48;;;2.00;;
55493;SDS011;41355;50.390;19.096;2022-09-06T11:51:00;5.40;;;1.80;;
55493;SDS011;41355;50.390;19.096;2022-09-06T11:53:27;7.03;;;2.08;;
55493;SDS011;41355;50.390;19.096;2022-09-06T12:08:45;5.05;;;1.92;;
55493;SDS011;41355;50.390;19.096;2022-09-06T12:11:21;5.28;;;1.80;;
55493;SDS011;41355;50.390;19.096;2022-09-06T12:13:51;4.60;;;1.40;;
55493;SDS011;41355;50.390;19.096;2022-09-06T12:16:19;6.40;;;1.70;;
55493;SDS011;41355;50.390;19.096;2022-09-06T12:23:55;4.43;;;1.73;;
55493;SDS011;41355;50.390;19.096;2022-09-06T12:29:09;4.32;;;1.83;;
55493;SDS011;41355;50.390;19.096;2022-09-06T12:31:39;5.15;;;1.55;;
55493;SDS011;41355;50.390;19.096;2022-09-06T12:34:09;5.50;;;1.70;;
55493;SDS011;41355;50.390;19.096;2022-09-06T12:36:36;7.05;;;2.22;;
55493;SDS011;41355;50.390;19.096;2022-09-06T12:39:11;6.15;;;1.70;;
55493;SDS011;41355;50.390;19.096;2022-09-06T12:41:38;6.10;;;1.67;;
55493;SDS011;41355;50.390;19.096;2022-09-06T12:44:05;4.95;;;1.80;;
55493;SDS011;41355;50.390;19.096;2022-09-06T12:46:31;6.68;;;2.03;;
55493;SDS011;41355;50.390;19.096;2022-09-06T12:49:08;6.60;;;1.63;;
55493;SDS011;41355;50.390;19.096;2022-09-06T12:51:35;4.28;;;1.80;;
55493;SDS011;41355;50.390;19.096;2022-09-06T12:54:03;6.78;;;1.92;;
55493;SDS011;41355;50.390;19.096;2022-09-06T12:56:30;5.05;;;1.90;;
55493;SDS011;41355;50.390;19.096;2022-09-06T12:59:08;4.32;;;1.85;;
55493;SDS011;41355;50.390;19.096;2022-09-06T13:01:34;6.45;;;1.65;;
55493;SDS011;41355;50.390;19.096;2022-09-06T13:04:03;6.32;;;1.95;;
55493;SDS011;41355;50.390;19.096;2022-09-06T13:06:32;4.13;;;1.40;;
55493;SDS011;41355;50.390;19.096;2022-09-06T13:09:00;4.35;;;1.65;;
55493;SDS011;41355;50.390;19.096;2022-09-06T13:11:30;3.75;;;1.67;;
55493;SDS011;41355;50.390;19.096;2022-09-06T13:13:58;16.73;;;1.90;;
55493;SDS011;41355;50.390;19.096;2022-09-06T13:16:30;5.70;;;2.00;;
55493;SDS011;41355;50.390;19.096;2022-09-06T13:19:12;7.25;;;2.10;;
55493;SDS011;41355;50.390;19.096;2022-09-06T13:21:40;4.75;;;1.98;;
55493;SDS011;41355;50.390;19.096;2022-09-06T13:24:22;5.18;;;1.83;;
55493;SDS011;41355;50.390;19.096;2022-09-06T13:26:49;5.60;;;1.83;;
55493;SDS011;41355;50.390;19.096;2022-09-06T13:31:44;5.28;;;1.48;;
55493;SDS011;41355;50.390;19.096;2022-09-06T13:34:18;4.53;;;2.00;;
55493;SDS011;41355;50.390;19.096;2022-09-06T13:36:47;4.45;;;1.90;;
55493;SDS011;41355;50.390;19.096;2022-09-06T13:39:27;7.72;;;2.10;;
55493;SDS011;41355;50.390;19.096;2022-09-06T13:41:54;9.88;;;2.03;;
55493;SDS011;41355;50.390;19.096;2022-09-06T13:44:27;3.47;;;1.67;;
55493;SDS011;41355;50.390;19.096;2022-09-06T13:46:53;3.85;;;1.63;;
55493;SDS011;41355;50.390;19.096;2022-09-06T13:49:20;4.93;;;1.60;;
55493;SDS011;41355;50.390;19.096;2022-09-06T13:51:47;5.45;;;1.73;;
55493;SDS011;41355;50.390;19.096;2022-09-06T13:54:14;6.45;;;1.40;;
55493;SDS011;41355;50.390;19.096;2022-09-06T13:56:40;6.60;;;1.98;;
55493;SDS011;41355;50.390;19.096;2022-09-06T13:59:08;5.20;;;1.80;;
55493;SDS011;41355;50.390;19.096;2022-09-06T14:01:35;4.68;;;1.98;;
55493;SDS011;41355;50.390;19.096;2022-09-06T14:04:01;7.28;;;2.00;;
55493;SDS011;41355;50.390;19.096;2022-09-06T14:06:27;5.53;;;2.20;;
55493;SDS011;41355;50.390;19.096;2022-09-06T14:08:53;5.13;;;1.70;;
55493;SDS011;41355;50.390;19.096;2022-09-06T14:11:20;4.72;;;1.45;;
55493;SDS011;41355;50.390;19.096;2022-09-06T14:13:46;4.20;;;1.70;;
55493;SDS011;41355;50.390;19.096;2022-09-06T14:16:12;6.95;;;2.00;;
55493;SDS011;41355;50.390;19.096;2022-09-06T14:18:38;5.65;;;2.08;;
55493;SDS011;41355;50.390;19.096;2022-09-06T14:21:04;4.05;;;1.60;;
55493;SDS011;41355;50.390;19.096;2022-09-06T14:23:31;4.30;;;1.73;;
55493;SDS011;41355;50.390;19.096;2022-09-06T14:25:58;6.10;;;1.70;;
55493;SDS011;41355;50.390;19.096;2022-09-06T14:28:24;9.18;;;1.85;;
55493;SDS011;41355;50.390;19.096;2022-09-06T14:30:51;8.02;;;1.40;;
55493;SDS011;41355;50.390;19.096;2022-09-06T14:33:17;4.00;;;1.60;;
55493;SDS011;41355;50.390;19.096;2022-09-06T14:35:45;2.70;;;1.30;;
55493;SDS011;41355;50.390;19.096;2022-09-06T14:38:11;8.25;;;1.60;;
55493;SDS011;41355;50.390;19.096;2022-09-06T14:40:37;5.50;;;1.80;;
55493;SDS011;41355;50.390;19.096;2022-09-06T14:43:03;4.03;;;1.65;;
55493;SDS011;41355;50.390;19.096;2022-09-06T14:45:32;3.95;;;1.40;;
55493;SDS011;41355;50.390;19.096;2022-09-06T14:47:58;6.95;;;1.70;;
55493;SDS011;41355;50.390;19.096;2022-09-06T14:50:25;8.73;;;1.83;;
55493;SDS011;41355;50.390;19.096;2022-09-06T14:52:51;4.18;;;1.42;;
55493;SDS011;41355;50.390;19.096;2022-09-06T14:55:17;3.80;;;1.50;;
55493;SDS011;41355;50.390;19.096;2022-09-06T14:57:43;5.32;;;1.60;;
55493;SDS011;41355;50.390;19.096;2022-09-06T15:00:10;7.32;;;2.00;;
55493;SDS011;41355;50.390;19.096;2022-09-06T15:02:36;4.70;;;1.65;;
55493;SDS011;41355;50.390;19.096;2022-09-06T15:05:02;7.75;;;2.10;;
55493;SDS011;41355;50.390;19.096;2022-09-06T15:07:29;4.18;;;1.35;;
55493;SDS011;41355;50.390;19.096;2022-09-06T15:09:55;3.92;;;1.60;;
55493;SDS011;41355;50.390;19.096;2022-09-06T15:12:22;5.10;;;1.63;;
55493;SDS011;41355;50.390;19.096;2022-09-06T15:14:48;4.18;;;1.70;;
55493;SDS011;41355;50.390;19.096;2022-09-06T15:17:14;4.03;;;1.50;;
55493;SDS011;41355;50.390;19.096;2022-09-06T15:19:40;4.60;;;1.75;;
55493;SDS011;41355;50.390;19.096;2022-09-06T15:22:06;5.30;;;1.60;;
55493;SDS011;41355;50.390;19.096;2022-09-06T15:24:33;4.70;;;1.52;;
55493;SDS011;41355;50.390;19.096;2022-09-06T15:27:00;5.57;;;1.63;;
55493;SDS011;41355;50.390;19.096;2022-09-06T15:29:27;6.15;;;1.60;;
55493;SDS011;41355;50.390;19.096;2022-09-06T15:31:53;4.63;;;1.30;;
55493;SDS011;41355;50.390;19.096;2022-09-06T15:34:20;5.03;;;2.00;;
55493;SDS011;41355;50.390;19.096;2022-09-06T15:36:46;11.18;;;4.53;;
55493;SDS011;41355;50.390;19.096;2022-09-06T15:39:12;12.20;;;5.65;;
55493;SDS011;41355;50.390;19.096;2022-09-06T15:41:39;9.95;;;4.28;;
55493;SDS011;41355;50.390;19.096;2022-09-06T15:44:09;6.05;;;2.30;;
55493;SDS011;41355;50.390;19.096;2022-09-06T15:49:09;7.28;;;2.00;;
55493;SDS011;41355;50.390;19.096;2022-09-06T15:51:36;4.55;;;1.80;;
55493;SDS011;41355;50.390;19.096;2022-09-06T15:54:03;5.50;;;1.55;;
55493;SDS011;41355;50.390;19.096;2022-09-06T15:56:29;4.65;;;1.83;;
55493;SDS011;41355;50.390;19.096;2022-09-06T15:58:55;5.10;;;1.40;;
55493;SDS011;41355;50.390;19.096;2022-09-06T16:01:21;6.80;;;1.73;;
55493;SDS011;41355;50.390;19.096;2022-09-06T16:03:51;4.85;;;1.95;;
55493;SDS011;41355;50.390;19.096;2022-09-06T16:06:19;5.78;;;1.85;;
55493;SDS011;41355;50.390;19.096;2022-09-06T16:08:46;6.00;;;1.88;;
55493;SDS011;41355;50.390;19.096;2022-09-06T16:11:13;7.72;;;2.00;;
55493;SDS011;41355;50.390;19.096;2022-09-06T16:13:40;4.18;;;1.80;;
55493;SDS011;41355;50.390;19.096;2022-09-06T16:16:07;8.07;;;2.28;;